Time;durP1;ratioP1;P1;durP2;ratioP2;P2;SDS_P1;SDS_P2;PMS_P1;PMS_P2;Temp;Humidity;BMP_temperature;BMP_pressure;BME280_temperature;BME280_humidity;BME280_pressure;Samples;Min_cycle;Max_cycle;Signal;HPM_P1;HPM_P2
2023/03/21 00:01:24;;;;;;;19.27;9.33;;;9.30;99.90;;;;;;4995889;28;20196;-70
2023/03/21 00:03:50;;;;;;;22.07;8.57;;;9.30;99.90;;;;;;4995970;28;20178;-70
2023/03/21 00:06:16;;;;;;;20.03;9.70;;;9.30;99.90;;;;;;4995865;28;20196;-70
2023/03/21 00:08:41;;;;;;;14.63;8.93;;;9.30;99.90;;;;;;4994418;28;20283;-70
2023/03/21 00:11:10;;;;;;;15.77;9.10;;;9.30;99.90;;;;;;4995640;28;20161;-70
2023/03/21 00:13:41;;;;;;;15.47;9.33;;;9.30;99.90;;;;;;4995601;28;20231;-70
2023/03/21 00:16:15;;;;;;;13.73;8.57;;;9.30;99.90;;;;;;4996365;28;20201;-70
2023/03/21 00:18:51;;;;;;;20.20;9.27;;;9.30;99.90;;;;;;4996049;28;20339;-70
2023/03/21 00:21:19;;;;;;;17.20;9.07;;;9.30;99.90;;;;;;4995821;28;20736;-70
2023/03/21 00:23:46;;;;;;;18.93;9.20;;;9.30;99.90;;;;;;4994451;28;20671;-70
2023/03/21 00:26:13;;;;;;;17.03;9.17;;;9.30;99.90;;;;;;4994415;28;20197;-70
2023/03/21 00:28:40;;;;;;;18.67;9.03;;;9.30;99.90;;;;;;4994350;28;20521;-70
2023/03/21 00:31:07;;;;;;;15.00;8.97;;;9.30;99.90;;;;;;4995593;28;20195;-70
2023/03/21 00:33:34;;;;;;;15.30;9.13;;;9.30;99.90;;;;;;4997315;28;20609;-69
2023/03/21 00:36:01;;;;;;;20.70;8.30;;;9.30;99.90;;;;;;4997594;28;20176;-69
2023/03/21 00:38:27;;;;;;;18.37;8.63;;;9.30;99.90;;;;;;4996358;28;20223;-69
2023/03/21 00:40:53;;;;;;;17.70;8.50;;;9.30;99.90;;;;;;4994515;28;20214;-69
2023/03/21 00:43:22;;;;;;;19.27;8.73;;;9.30;99.90;;;;;;4993943;28;20263;-70
2023/03/21 00:45:50;;;;;;;12.43;8.57;;;9.30;99.90;;;;;;4994881;28;20169;-69
2023/03/21 00:48:16;;;;;;;12.67;8.30;;;9.30;99.90;;;;;;4995214;28;20196;-70
2023/03/21 00:50:45;;;;;;;13.23;8.80;;;9.30;99.90;;;;;;4994957;28;20582;-70
2023/03/21 00:53:12;;;;;;;17.40;9.23;;;9.20;99.90;;;;;;4994777;28;20653;-69
2023/03/21 00:55:37;;;;;;;18.97;9.37;;;9.20;99.90;;;;;;4994929;28;20180;-70
2023/03/21 00:58:07;;;;;;;12.90;9.07;;;9.30;99.90;;;;;;4998259;28;20257;-70
2023/03/21 01:00:35;;;;;;;16.83;8.97;;;9.30;99.90;;;;;;4993662;28;20204;-70
2023/03/21 01:03:11;;;;;;;13.73;8.50;;;9.30;99.90;;;;;;4995561;28;20183;-70
2023/03/21 01:08:26;;;;;;;22.97;8.50;;;9.30;99.90;;;;;;4994997;28;20160;-70
2023/03/21 01:10:53;;;;;;;18.33;9.03;;;9.30;99.90;;;;;;4993312;28;20192;-70
2023/03/21 01:13:21;;;;;;;19.90;9.43;;;9.30;99.90;;;;;;4993223;28;20184;-70
2023/03/21 01:15:50;;;;;;;18.77;8.87;;;9.30;99.90;;;;;;4993066;28;20235;-70
2023/03/21 01:18:18;;;;;;;21.20;10.03;;;9.30;99.90;;;;;;4994322;28;20322;-70
2023/03/21 01:20:45;;;;;;;14.30;9.67;;;9.40;99.90;;;;;;4994419;28;20208;-70
2023/03/21 01:23:12;;;;;;;15.40;9.20;;;9.40;99.90;;;;;;4993074;28;20180;-70
2023/03/21 01:25:38;;;;;;;16.97;9.03;;;9.40;99.90;;;;;;4994350;28;20184;-70
2023/03/21 01:28:04;;;;;;;14.10;9.17;;;9.40;99.90;;;;;;4994200;28;20201;-70
2023/03/21 01:30:31;;;;;;;20.40;8.60;;;9.40;99.90;;;;;;4993012;28;20176;-70
2023/03/21 01:32:57;;;;;;;14.43;8.87;;;9.40;99.90;;;;;;4994853;28;20650;-71
2023/03/21 01:35:22;;;;;;;20.80;9.63;;;9.40;99.90;;;;;;4993035;28;20180;-70
2023/03/21 01:37:48;;;;;;;19.90;9.43;;;9.40;99.90;;;;;;4994342;28;20566;-70
2023/03/21 01:40:18;;;;;;;17.70;9.07;;;9.40;99.90;;;;;;4993129;28;20290;-70
2023/03/21 01:42:44;;;;;;;17.00;10.03;;;9.40;99.90;;;;;;4993364;28;20173;-70
2023/03/21 01:45:48;;;;;;;24.77;10.18;;;9.40;99.90;;;;;;4993064;28;20658;-70
2023/03/21 01:48:14;;;;;;;22.27;9.77;;;9.40;99.90;;;;;;4994172;28;20172;-70
2023/03/21 01:50:42;;;;;;;20.37;9.40;;;9.40;99.90;;;;;;4992949;28;20233;-70
2023/03/21 01:53:08;;;;;;;18.73;9.63;;;9.40;99.90;;;;;;4994117;28;20188;-70
2023/03/21 01:55:35;;;;;;;13.60;8.43;;;9.40;99.90;;;;;;4994101;28;20177;-70
2023/03/21 01:58:03;;;;;;;18.13;9.67;;;9.40;99.90;;;;;;4994022;28;20538;-69
2023/03/21 02:00:30;;;;;;;20.93;8.63;;;9.40;99.90;;;;;;4993835;28;20200;-70
2023/03/21 02:03:00;;;;;;;20.87;10.57;;;9.40;99.90;;;;;;4993963;28;20318;-70
2023/03/21 02:05:52;;;;;;;19.33;9.30;;;9.40;99.90;;;;;;4994347;28;20176;-70
2023/03/21 02:08:19;;;;;;;17.53;9.57;;;9.40;99.90;;;;;;4992272;28;20676;-70
2023/03/21 02:10:47;;;;;;;17.10;10.03;;;9.40;99.90;;;;;;4994925;28;20200;-70
2023/03/21 02:13:14;;;;;;;20.50;10.03;;;9.50;99.90;;;;;;4997825;28;20173;-69
2023/03/21 02:15:55;;;;;;;21.27;9.63;;;9.50;99.90;;;;;;4996221;28;20192;-70
2023/03/21 02:18:39;;;;;;;15.07;9.57;;;9.50;99.90;;;;;;4996397;28;20196;-70
2023/03/21 02:21:29;;;;;;;23.77;9.43;;;9.50;99.90;;;;;;4996348;28;20211;-70
2023/03/21 02:24:21;;;;;;;20.17;9.30;;;9.50;99.90;;;;;;4996315;28;20657;-70
2023/03/21 02:27:08;;;;;;;20.13;10.13;;;9.40;99.90;;;;;;4997575;28;20195;-69
2023/03/21 02:30:03;;;;;;;16.20;9.57;;;9.40;99.90;;;;;;4996184;28;20212;-70
2023/03/21 02:33:16;;;;;;;20.47;9.60;;;9.40;99.90;;;;;;4996107;28;20180;-70
2023/03/21 02:35:57;;;;;;;12.93;9.13;;;9.40;99.90;;;;;;4956744;29;20185;-71
2023/03/21 02:38:35;;;;;;;14.63;9.90;;;9.40;99.90;;;;;;4956604;29;20257;-66
2023/03/21 02:41:11;;;;;;;17.43;9.30;;;9.40;99.90;;;;;;4978763;28;20232;-66
2023/03/21 02:43:46;;;;;;;18.87;9.47;;;9.40;99.90;;;;;;4997406;28;20168;-66
2023/03/21 02:46:17;;;;;;;16.80;9.77;;;9.40;99.90;;;;;;4995666;28;20569;-66
2023/03/21 02:48:57;;;;;;;20.87;9.80;;;9.40;99.90;;;;;;4996997;28;20165;-66
2023/03/21 02:51:25;;;;;;;18.80;9.50;;;9.40;99.90;;;;;;4997919;28;20159;-64
2023/03/21 02:54:18;;;;;;;19.17;9.63;;;9.40;99.90;;;;;;4996863;28;20227;-64
2023/03/21 02:56:47;;;;;;;17.80;9.30;;;9.40;99.90;;;;;;4995423;28;20236;-64
2023/03/21 02:59:15;;;;;;;16.20;10.37;;;9.40;99.90;;;;;;4996524;28;20226;-64
2023/03/21 03:01:41;;;;;;;20.47;10.37;;;9.40;99.90;;;;;;4996776;28;20180;-64
2023/03/21 03:04:22;;;;;;;22.20;10.33;;;9.40;99.90;;;;;;4995377;28;20692;-64
2023/03/21 03:07:15;;;;;;;16.47;9.87;;;9.40;99.90;;;;;;4995289;28;20213;-64
2023/03/21 03:10:11;;;;;;;18.67;10.97;;;9.40;99.90;;;;;;4996589;28;20179;-64
2023/03/21 03:12:44;;;;;;;18.13;10.37;;;9.40;99.90;;;;;;4997015;28;20161;-64
2023/03/21 03:15:55;;;;;;;16.90;10.43;;;9.40;99.90;;;;;;4995012;28;20275;-64
2023/03/21 03:18:39;;;;;;;20.00;10.63;;;9.40;99.90;;;;;;4993424;28;20215;-64
2023/03/21 03:21:32;;;;;;;18.70;11.03;;;9.40;99.90;;;;;;4995120;28;20274;-64
2023/03/21 03:24:05;;;;;;;20.40;11.23;;;9.40;99.90;;;;;;4995436;28;20251;-64
2023/03/21 03:26:35;;;;;;;20.27;11.17;;;9.40;99.90;;;;;;4996607;28;20197;-64
2023/03/21 03:29:06;;;;;;;26.23;12.07;;;9.40;99.90;;;;;;4996085;28;20200;-64
2023/03/21 03:31:40;;;;;;;20.63;10.37;;;9.40;99.90;;;;;;4996617;28;20216;-64
2023/03/21 03:34:11;;;;;;;20.10;11.60;;;9.30;99.90;;;;;;4994878;28;20276;-64
2023/03/21 03:36:43;;;;;;;19.20;11.00;;;9.30;99.90;;;;;;4996349;28;20196;-64
2023/03/21 03:39:11;;;;;;;22.97;11.13;;;9.30;99.90;;;;;;4996311;28;20576;-64
2023/03/21 03:41:50;;;;;;;18.07;11.57;;;9.30;99.90;;;;;;4994589;28;20652;-64
2023/03/21 03:44:16;;;;;;;19.80;11.33;;;9.30;99.90;;;;;;4994617;28;20176;-64
2023/03/21 03:47:02;;;;;;;20.33;11.53;;;9.30;99.90;;;;;;4994494;28;20200;-64
2023/03/21 03:49:35;;;;;;;22.60;11.23;;;9.30;99.90;;;;;;4995801;28;20172;-64
2023/03/21 03:52:06;;;;;;;19.67;11.00;;;9.30;99.90;;;;;;4995751;28;20251;-64
2023/03/21 03:54:37;;;;;;;21.47;11.03;;;9.30;99.90;;;;;;4994458;28;20185;-64
2023/03/21 03:57:04;;;;;;;20.20;11.07;;;9.20;99.90;;;;;;4994379;28;20583;-64
2023/03/21 03:59:34;;;;;;;18.87;10.57;;;9.20;99.90;;;;;;4995397;28;20637;-64
2023/03/21 04:02:00;;;;;;;26.27;11.83;;;9.20;99.90;;;;;;4995962;28;20177;-64
2023/03/21 04:04:27;;;;;;;30.17;13.80;;;9.20;99.90;;;;;;4995873;28;20184;-64
2023/03/21 04:06:54;;;;;;;24.07;13.40;;;9.20;99.90;;;;;;4994249;28;20197;-64
2023/03/21 04:09:20;;;;;;;23.07;13.00;;;9.20;99.90;;;;;;4995683;28;20633;-64
2023/03/21 04:11:46;;;;;;;21.67;13.33;;;9.20;99.90;;;;;;4994072;28;20180;-64
2023/03/21 04:14:12;;;;;;;28.60;13.77;;;9.20;99.90;;;;;;4995393;28;20177;-64
2023/03/21 04:16:38;;;;;;;21.77;12.50;;;9.20;99.90;;;;;;4993865;28;20204;-65
2023/03/21 04:19:04;;;;;;;22.77;12.67;;;9.10;99.90;;;;;;4995268;28;20680;-64
2023/03/21 04:21:30;;;;;;;25.20;13.07;;;9.10;99.90;;;;;;4993956;28;20349;-64
2023/03/21 04:23:56;;;;;;;23.13;12.67;;;9.10;99.90;;;;;;4993941;28;20196;-64
2023/03/21 04:26:23;;;;;;;21.50;12.43;;;9.10;99.90;;;;;;4995598;28;20200;-64
2023/03/21 04:28:50;;;;;;;21.03;13.10;;;9.10;99.90;;;;;;4993803;28;20192;-64
2023/03/21 04:31:16;;;;;;;20.27;11.50;;;9.10;99.90;;;;;;4993724;28;20191;-64
2023/03/21 04:33:43;;;;;;;21.20;11.90;;;9.00;99.90;;;;;;4994930;28;20188;-64
2023/03/21 04:36:25;;;;;;;23.93;12.30;;;9.00;99.90;;;;;;4993659;28;20239;-64
2023/03/21 04:38:51;;;;;;;18.63;11.40;;;9.10;99.90;;;;;;4994857;28;20168;-64
2023/03/21 04:41:17;;;;;;;18.80;11.17;;;9.10;99.90;;;;;;4994842;28;20244;-64
2023/03/21 04:43:43;;;;;;;26.77;12.03;;;9.10;99.90;;;;;;4994727;28;20177;-64
2023/03/21 04:46:09;;;;;;;18.97;11.77;;;9.00;99.90;;;;;;4994833;28;20177;-64
2023/03/21 04:48:35;;;;;;;23.67;10.83;;;9.00;99.90;;;;;;4994804;28;20211;-64
2023/03/21 04:51:01;;;;;;;22.60;11.13;;;9.00;99.90;;;;;;4994710;28;20649;-64
2023/03/21 04:53:27;;;;;;;21.07;11.93;;;9.00;99.90;;;;;;4994630;28;20246;-64
2023/03/21 04:55:53;;;;;;;23.87;12.00;;;9.00;99.90;;;;;;4995854;28;20180;-69
2023/03/21 04:58:19;;;;;;;19.93;10.87;;;9.00;99.90;;;;;;4993677;28;20191;-64
2023/03/21 05:00:46;;;;;;;19.30;11.47;;;9.00;99.90;;;;;;4993124;28;20603;-64
2023/03/21 05:03:18;;;;;;;20.60;10.20;;;8.90;99.90;;;;;;4995007;28;20168;-64
2023/03/21 05:05:45;;;;;;;17.10;10.77;;;8.90;99.90;;;;;;4994755;28;20191;-64
2023/03/21 05:08:12;;;;;;;18.33;10.27;;;8.90;99.90;;;;;;4994318;28;20203;-64
2023/03/21 05:10:37;;;;;;;16.50;10.83;;;8.90;99.90;;;;;;4992985;28;20192;-64
2023/03/21 05:13:03;;;;;;;19.13;9.70;;;8.90;99.90;;;;;;4994859;28;20188;-64
2023/03/21 05:15:29;;;;;;;21.13;10.27;;;8.90;99.90;;;;;;4994150;28;20183;-64
2023/03/21 05:17:57;;;;;;;20.23;10.87;;;8.90;99.90;;;;;;4994228;28;20216;-64
2023/03/21 05:20:24;;;;;;;19.93;10.83;;;8.90;99.90;;;;;;4994113;28;20212;-64
2023/03/21 05:22:50;;;;;;;18.97;10.47;;;8.90;99.90;;;;;;4994252;28;20688;-64
2023/03/21 05:25:20;;;;;;;20.40;11.03;;;8.90;99.90;;;;;;4992899;28;20645;-64
2023/03/21 05:27:52;;;;;;;25.53;11.20;;;8.90;99.90;;;;;;4992840;28;20735;-64
2023/03/21 05:30:19;;;;;;;20.80;10.50;;;8.90;99.90;;;;;;4994169;28;20172;-64
2023/03/21 05:32:45;;;;;;;20.30;9.90;;;8.90;99.90;;;;;;4994430;28;20279;-64
2023/03/21 05:35:11;;;;;;;16.03;9.40;;;8.90;99.90;;;;;;4994416;28;20184;-64
2023/03/21 05:37:37;;;;;;;15.80;10.13;;;8.90;99.90;;;;;;4994261;28;20204;-64
2023/03/21 05:40:08;;;;;;;24.03;11.17;;;8.90;99.90;;;;;;4992744;28;20286;-64
2023/03/21 05:42:34;;;;;;;18.33;10.57;;;8.90;99.90;;;;;;4994216;28;20168;-64
2023/03/21 05:44:59;;;;;;;16.20;9.67;;;9.00;99.90;;;;;;4993954;28;20177;-64
2023/03/21 05:47:25;;;;;;;16.77;9.83;;;9.00;99.90;;;;;;4996447;28;20239;-64
2023/03/21 05:49:51;;;;;;;16.57;9.67;;;9.00;99.90;;;;;;4998062;28;20263;-64
2023/03/21 05:52:17;;;;;;;18.30;10.00;;;9.00;99.90;;;;;;4998183;28;20199;-64
2023/03/21 05:54:43;;;;;;;15.50;9.70;;;9.00;99.90;;;;;;4998033;28;20184;-64
2023/03/21 05:57:09;;;;;;;20.30;10.33;;;9.10;99.90;;;;;;4997947;28;20202;-64
2023/03/21 05:59:35;;;;;;;21.00;9.17;;;9.10;99.90;;;;;;4996508;28;20184;-64
2023/03/21 06:02:01;;;;;;;19.60;10.80;;;9.10;99.90;;;;;;5000078;28;20543;-64
2023/03/21 06:04:27;;;;;;;21.53;11.00;;;9.10;99.90;;;;;;4998097;28;20184;-64
2023/03/21 06:06:53;;;;;;;24.83;11.20;;;9.10;99.90;;;;;;4998630;28;20200;-64
2023/03/21 06:09:20;;;;;;;26.03;10.87;;;9.10;99.90;;;;;;4998153;28;20246;-64
2023/03/21 06:11:48;;;;;;;17.83;10.17;;;9.10;99.90;;;;;;4998945;28;20219;-64
2023/03/21 06:14:15;;;;;;;18.03;10.07;;;9.10;99.90;;;;;;4999360;28;20177;-64
2023/03/21 06:16:41;;;;;;;15.90;9.27;;;9.10;99.90;;;;;;4998468;28;20207;-66
2023/03/21 06:19:07;;;;;;;19.03;9.63;;;9.10;99.90;;;;;;4999811;28;20586;-64
2023/03/21 06:21:32;;;;;;;13.23;9.03;;;9.00;99.90;;;;;;4998389;28;20201;-64
2023/03/21 06:23:58;;;;;;;14.23;9.27;;;9.10;99.90;;;;;;4998133;28;20193;-64
2023/03/21 06:26:25;;;;;;;14.47;9.33;;;9.10;99.90;;;;;;4997725;28;20207;-64
2023/03/21 06:28:52;;;;;;;19.43;8.83;;;9.10;99.90;;;;;;4998236;28;20171;-64
2023/03/21 06:31:21;;;;;;;13.00;9.03;;;9.10;99.90;;;;;;4995963;28;20188;-64
2023/03/21 06:33:48;;;;;;;19.43;9.80;;;9.10;99.90;;;;;;4997587;28;20161;-64
2023/03/21 06:36:14;;;;;;;19.77;9.37;;;9.20;99.90;;;;;;4997258;28;20224;-64
2023/03/21 06:38:40;;;;;;;19.03;9.47;;;9.20;99.90;;;;;;4997056;28;20179;-64
2023/03/21 06:41:08;;;;;;;17.90;9.60;;;9.30;99.90;;;;;;4996929;28;20212;-64
2023/03/21 06:43:34;;;;;;;16.67;8.93;;;9.30;99.90;;;;;;4995678;28;20187;-64
2023/03/21 06:46:00;;;;;;;21.57;10.23;;;9.30;99.90;;;;;;4996825;28;20545;-64
2023/03/21 06:48:26;;;;;;;13.87;8.87;;;9.30;99.90;;;;;;4996884;28;20651;-64
2023/03/21 06:50:53;;;;;;;14.40;8.83;;;9.30;99.90;;;;;;4995843;28;20188;-64
2023/03/21 06:53:23;;;;;;;13.80;8.77;;;9.30;99.90;;;;;;4996952;28;20271;-64
2023/03/21 06:55:50;;;;;;;12.87;9.23;;;9.30;99.90;;;;;;4995483;28;20645;-64
2023/03/21 06:58:16;;;;;;;16.90;9.20;;;9.30;99.90;;;;;;4996563;28;20547;-67
2023/03/21 07:00:43;;;;;;;15.30;9.23;;;9.30;99.90;;;;;;4996623;28;20200;-67
2023/03/21 07:03:10;;;;;;;14.97;9.00;;;9.30;99.90;;;;;;4997271;28;20187;-68
2023/03/21 07:05:36;;;;;;;19.87;8.93;;;9.30;99.90;;;;;;4995417;28;20197;-68
2023/03/21 07:08:02;;;;;;;17.90;9.40;;;9.30;99.90;;;;;;4996496;28;20203;-67
2023/03/21 07:10:28;;;;;;;16.13;8.57;;;9.30;99.90;;;;;;4996667;28;20216;-67
2023/03/21 07:12:54;;;;;;;19.97;9.97;;;9.30;99.90;;;;;;4996939;28;20192;-68
2023/03/21 07:15:20;;;;;;;16.57;9.00;;;9.40;99.90;;;;;;4996510;28;20618;-67
2023/03/21 07:17:46;;;;;;;15.10;8.43;;;9.40;99.90;;;;;;4996437;28;20220;-67
2023/03/21 07:20:12;;;;;;;23.00;10.47;;;9.40;99.90;;;;;;4995596;28;20692;-67
2023/03/21 07:22:37;;;;;;;13.57;8.40;;;9.40;99.90;;;;;;4996119;28;20681;-67
2023/03/21 07:25:04;;;;;;;17.43;9.13;;;9.40;99.90;;;;;;4996814;28;20188;-67
2023/03/21 07:27:30;;;;;;;16.27;9.63;;;9.40;99.90;;;;;;4996273;28;20577;-67
2023/03/21 07:29:56;;;;;;;16.27;8.90;;;9.40;99.90;;;;;;4996142;28;20307;-67
2023/03/21 07:32:21;;;;;;;16.67;8.93;;;9.40;99.90;;;;;;4996493;28;20259;-67
2023/03/21 07:34:47;;;;;;;19.60;9.17;;;9.40;99.90;;;;;;4994925;28;20239;-67
2023/03/21 07:37:15;;;;;;;15.73;9.10;;;9.30;99.90;;;;;;4994897;28;20208;-67
2023/03/21 07:39:43;;;;;;;14.77;9.17;;;9.30;99.90;;;;;;4998327;28;20270;-66
2023/03/21 07:42:12;;;;;;;14.47;8.77;;;9.30;99.90;;;;;;4996683;28;20243;-67
2023/03/21 07:44:41;;;;;;;17.07;9.07;;;9.30;99.90;;;;;;4994942;28;20180;-65
2023/03/21 07:47:08;;;;;;;20.93;8.87;;;9.30;99.90;;;;;;4996033;28;20283;-65
2023/03/21 07:49:33;;;;;;;16.83;9.27;;;9.30;99.90;;;;;;4996363;28;20255;-65
2023/03/21 07:52:01;;;;;;;14.63;9.47;;;9.30;99.90;;;;;;4995902;28;20528;-65
2023/03/21 07:54:27;;;;;;;18.90;9.90;;;9.30;99.90;;;;;;4994574;28;20181;-65
2023/03/21 07:56:54;;;;;;;19.07;9.57;;;9.20;99.90;;;;;;4995797;28;20271;-66
2023/03/21 07:59:20;;;;;;;16.63;9.27;;;9.10;99.90;;;;;;4996300;28;20179;-66
2023/03/21 08:01:45;;;;;;;14.77;9.03;;;9.10;99.90;;;;;;4995872;28;20208;-66
2023/03/21 08:04:12;;;;;;;22.00;9.50;;;9.10;99.90;;;;;;4995582;28;20176;-66
2023/03/21 08:06:38;;;;;;;18.27;9.40;;;9.10;99.90;;;;;;4995801;28;20615;-66
2023/03/21 08:09:04;;;;;;;15.53;9.07;;;9.10;99.90;;;;;;4994909;28;20177;-66
2023/03/21 08:11:30;;;;;;;19.70;9.93;;;9.10;99.90;;;;;;4994208;28;20188;-65
2023/03/21 08:14:00;;;;;;;23.67;11.00;;;9.00;99.90;;;;;;4995642;28;20184;-65
2023/03/21 08:16:26;;;;;;;20.30;10.43;;;9.00;99.90;;;;;;4995255;28;20200;-66
2023/03/21 08:18:52;;;;;;;24.70;11.40;;;9.00;99.90;;;;;;4995292;28;20620;-66
2023/03/21 08:21:18;;;;;;;17.03;11.40;;;9.10;99.90;;;;;;4995280;28;20207;-66
2023/03/21 08:23:44;;;;;;;20.67;11.93;;;9.10;99.90;;;;;;4995281;28;20180;-66
2023/03/21 08:26:10;;;;;;;19.07;10.53;;;9.20;99.90;;;;;;4995123;28;20172;-66
2023/03/21 08:28:38;;;;;;;18.43;11.20;;;9.20;99.90;;;;;;4995324;28;20531;-66
2023/03/21 08:31:07;;;;;;;24.77;11.33;;;9.30;99.90;;;;;;4993740;28;20665;-66
2023/03/21 08:33:33;;;;;;;21.20;9.87;;;9.30;99.90;;;;;;4995091;28;20188;-66
2023/03/21 08:36:00;;;;;;;21.10;11.00;;;9.40;99.90;;;;;;4995411;28;20227;-66
2023/03/21 08:38:28;;;;;;;21.73;10.83;;;9.40;99.90;;;;;;4995025;28;20211;-66
2023/03/21 08:40:55;;;;;;;18.53;11.03;;;9.40;99.90;;;;;;4993818;28;20215;-66
2023/03/21 08:43:22;;;;;;;16.43;10.30;;;9.40;99.90;;;;;;4993565;28;20312;-66
2023/03/21 08:45:48;;;;;;;21.63;11.30;;;9.40;99.90;;;;;;4995119;28;20172;-66
2023/03/21 08:48:14;;;;;;;21.67;10.40;;;9.40;99.90;;;;;;4994713;28;20266;-65
2023/03/21 08:50:40;;;;;;;16.37;11.20;;;9.40;99.90;;;;;;4994668;28;20177;-66
2023/03/21 08:53:06;;;;;;;23.30;11.50;;;9.40;99.90;;;;;;4993497;28;20196;-66
2023/03/21 08:55:32;;;;;;;18.70;11.60;;;9.50;99.90;;;;;;4995263;28;20628;-66
2023/03/21 08:57:58;;;;;;;19.33;11.63;;;9.50;99.90;;;;;;4994545;28;20287;-66
2023/03/21 09:00:24;;;;;;;26.20;11.40;;;9.40;99.90;;;;;;4993318;28;20295;-64
2023/03/21 09:02:53;;;;;;;26.90;12.17;;;9.50;99.90;;;;;;4994510;28;20184;-64
2023/03/21 09:05:19;;;;;;;23.60;11.97;;;9.40;99.90;;;;;;4993086;28;20673;-64
2023/03/21 09:07:45;;;;;;;28.20;12.30;;;9.50;99.90;;;;;;4994411;28;20732;-64
2023/03/21 09:10:16;;;;;;;18.03;11.30;;;9.50;99.90;;;;;;4994863;28;20212;-64
2023/03/21 09:12:42;;;;;;;19.97;11.77;;;9.60;99.90;;;;;;4994571;28;20168;-64
2023/03/21 09:15:10;;;;;;;22.50;11.03;;;9.60;99.90;;;;;;4992866;28;20184;-64
2023/03/21 09:17:42;;;;;;;19.00;11.13;;;9.70;99.90;;;;;;4994147;28;20741;-64
2023/03/21 09:20:20;;;;;;;17.33;10.67;;;9.70;99.90;;;;;;4992132;28;20244;-64
2023/03/21 09:22:47;;;;;;;20.23;11.27;;;9.80;99.90;;;;;;4994428;28;20184;-64
2023/03/21 09:25:15;;;;;;;18.53;11.10;;;9.80;99.90;;;;;;4992967;28;20226;-64
2023/03/21 09:27:42;;;;;;;20.17;11.13;;;9.70;99.90;;;;;;4994339;28;20571;-64
2023/03/21 09:30:09;;;;;;;21.03;10.67;;;9.70;99.90;;;;;;4994087;28;20260;-64
2023/03/21 09:32:36;;;;;;;15.23;10.37;;;9.70;99.90;;;;;;4994330;28;20235;-64
2023/03/21 09:35:04;;;;;;;16.37;9.97;;;9.70;99.90;;;;;;4994125;28;20180;-64
2023/03/21 09:37:31;;;;;;;23.43;11.30;;;9.70;99.90;;;;;;4992761;28;20200;-64
2023/03/21 09:39:57;;;;;;;17.57;10.33;;;9.70;99.90;;;;;;4992833;28;20239;-64
2023/03/21 09:42:33;;;;;;;18.37;10.73;;;9.70;99.90;;;;;;4992969;28;20184;-64
2023/03/21 09:45:25;;;;;;;17.50;11.33;;;9.60;99.90;;;;;;4992749;28;20691;-64
2023/03/21 09:47:52;;;;;;;21.03;11.80;;;9.60;99.90;;;;;;4993984;28;20208;-64
2023/03/21 09:50:34;;;;;;;22.70;10.73;;;9.60;99.90;;;;;;4994129;28;20176;-64
2023/03/21 09:53:11;;;;;;;16.33;11.67;;;9.60;99.90;;;;;;4994177;28;20196;-64
2023/03/21 09:55:39;;;;;;;14.50;10.50;;;9.50;99.90;;;;;;4994196;28;20199;-64
2023/03/21 09:58:20;;;;;;;22.43;10.70;;;9.50;99.90;;;;;;4993819;28;20196;-70
2023/03/21 10:00:55;;;;;;;21.90;11.53;;;9.50;99.90;;;;;;4992605;28;20558;-69
2023/03/21 10:03:25;;;;;;;25.07;12.03;;;9.50;99.90;;;;;;4994483;28;20243;-70
2023/03/21 10:05:57;;;;;;;20.10;11.20;;;9.50;99.90;;;;;;4992576;28;20181;-68
2023/03/21 10:08:33;;;;;;;21.00;10.80;;;9.50;99.90;;;;;;4992637;28;20591;-68
2023/03/21 10:11:10;;;;;;;17.67;11.47;;;9.50;99.90;;;;;;4994113;28;20219;-68
2023/03/21 10:13:42;;;;;;;18.90;9.03;;;9.40;99.90;;;;;;4993810;28;20219;-68
2023/03/21 10:16:20;;;;;;;15.67;9.90;;;9.40;99.90;;;;;;4992223;28;20557;-68
2023/03/21 10:18:48;;;;;;;14.03;8.97;;;9.40;99.90;;;;;;4993588;28;20227;-68
2023/03/21 10:21:22;;;;;;;14.43;8.37;;;9.40;99.90;;;;;;4993785;28;20669;-68
2023/03/21 10:23:50;;;;;;;16.20;9.23;;;9.40;99.90;;;;;;4993562;28;20196;-68
2023/03/21 10:26:20;;;;;;;13.67;9.40;;;9.30;99.90;;;;;;4994171;28;20205;-68
2023/03/21 10:28:47;;;;;;;16.27;8.83;;;9.30;99.90;;;;;;4993748;28;20188;-68
2023/03/21 10:31:24;;;;;;;11.10;8.13;;;9.40;99.90;;;;;;4993485;28;20180;-68
2023/03/21 10:33:53;;;;;;;19.20;8.83;;;9.40;99.90;;;;;;4996097;28;20195;-68
2023/03/21 10:36:29;;;;;;;15.23;8.63;;;9.40;99.90;;;;;;4997142;28;20230;-68
2023/03/21 10:39:32;;;;;;;10.87;8.00;;;9.40;99.90;;;;;;4995899;28;20184;-68
2023/03/21 10:41:58;;;;;;;16.47;8.03;;;9.40;99.90;;;;;;4990861;28;20246;-68
2023/03/21 10:44:30;;;;;;;14.63;7.37;;;9.30;99.90;;;;;;4996981;28;20180;-68
2023/03/21 10:47:06;;;;;;;12.53;8.00;;;9.30;99.90;;;;;;4996998;28;20560;-68
2023/03/21 10:49:34;;;;;;;17.53;7.70;;;9.30;99.90;;;;;;4997417;28;20164;-68
2023/03/21 10:52:10;;;;;;;18.77;7.70;;;9.30;99.90;;;;;;4997365;28;20259;-68
2023/03/21 10:54:36;;;;;;;11.27;7.77;;;9.40;99.90;;;;;;4996985;28;20176;-68
2023/03/21 10:57:25;;;;;;;13.27;7.40;;;9.50;99.90;;;;;;4996761;28;20557;-68
2023/03/21 10:59:52;;;;;;;17.67;7.27;;;9.50;99.90;;;;;;4987865;28;20375;-68
2023/03/21 11:02:34;;;;;;;18.13;7.67;;;9.40;99.90;;;;;;4996893;28;20259;-68
2023/03/21 11:05:17;;;;;;;12.23;7.67;;;9.50;99.90;;;;;;4995800;28;20677;-68
2023/03/21 11:07:43;;;;;;;17.03;8.17;;;9.50;99.90;;;;;;4996741;28;20684;-68
2023/03/21 11:10:16;;;;;;;10.37;7.63;;;9.50;99.90;;;;;;4996843;28;20180;-68
2023/03/21 11:12:47;;;;;;;15.03;7.10;;;9.60;99.90;;;;;;4997191;28;20284;-68
2023/03/21 11:15:40;;;;;;;14.93;7.93;;;9.60;99.90;;;;;;4995168;28;20176;-67
2023/03/21 11:18:24;;;;;;;14.17;7.27;;;9.70;99.90;;;;;;4994921;28;20216;-68
2023/03/21 11:20:56;;;;;;;15.17;8.03;;;9.80;99.90;;;;;;4995191;28;20207;-68
2023/03/21 11:23:27;;;;;;;13.67;7.87;;;9.90;99.90;;;;;;4996637;28;20215;-68
2023/03/21 11:25:54;;;;;;;13.33;7.53;;;9.90;99.90;;;;;;4997184;28;20161;-68
2023/03/21 11:28:23;;;;;;;10.93;7.17;;;10.00;99.90;;;;;;4995166;28;20222;-67
2023/03/21 11:30:57;;;;;;;10.80;7.23;;;10.00;99.90;;;;;;4996684;28;20176;-67
2023/03/21 11:33:32;;;;;;;14.07;7.80;;;9.90;99.90;;;;;;4996236;28;20199;-67
2023/03/21 11:36:02;;;;;;;14.33;8.50;;;9.90;99.90;;;;;;4994974;28;20172;-67
2023/03/21 11:38:37;;;;;;;14.53;7.57;;;10.00;99.90;;;;;;4996569;28;20172;-67
2023/03/21 11:41:04;;;;;;;11.20;7.00;;;10.10;99.90;;;;;;4995146;28;20316;-67
2023/03/21 11:43:39;;;;;;;13.03;8.10;;;10.10;99.90;;;;;;4995041;28;20184;-67
2023/03/21 11:46:06;;;;;;;11.17;7.53;;;10.10;99.90;;;;;;4996266;28;20241;-67
2023/03/21 11:48:39;;;;;;;9.43;6.10;;;10.30;99.90;;;;;;4996565;28;20177;-67
2023/03/21 11:51:20;;;;;;;13.43;7.10;;;10.40;99.90;;;;;;4996290;28;20260;-67
2023/03/21 11:53:46;;;;;;;10.90;6.03;;;10.40;99.90;;;;;;4995890;28;20283;-67
2023/03/21 11:56:32;;;;;;;10.10;6.10;;;10.50;99.90;;;;;;4996754;28;20200;-67
2023/03/21 11:59:20;;;;;;;14.27;6.47;;;10.60;99.90;;;;;;4995223;28;20184;-67
2023/03/21 12:02:13;;;;;;;7.87;5.70;;;10.70;99.90;;;;;;4995858;28;20211;-67
2023/03/21 12:04:52;;;;;;;9.68;5.60;;;10.70;99.90;;;;;;4995979;28;20157;-67
2023/03/21 12:07:36;;;;;;;9.05;5.75;;;10.80;99.90;;;;;;4996134;28;20196;-67
2023/03/21 12:10:10;;;;;;;9.82;5.10;;;10.90;99.90;;;;;;4994582;28;20645;-67
2023/03/21 12:13:03;;;;;;;10.57;5.55;;;11.00;99.90;;;;;;4996004;28;20649;-67
2023/03/21 12:15:35;;;;;;;6.97;5.55;;;11.00;99.90;;;;;;4995620;28;20164;-67
2023/03/21 12:18:31;;;;;;;5.95;4.80;;;11.00;99.90;;;;;;4995459;28;20219;-67
2023/03/21 12:21:18;;;;;;;7.95;5.30;;;11.00;99.90;;;;;;4994397;28;20294;-67
2023/03/21 12:24:21;;;;;;;9.15;4.70;;;11.10;99.90;;;;;;4994239;28;20236;-67
2023/03/21 12:27:22;;;;;;;10.70;5.93;;;11.10;99.90;;;;;;4995555;28;20188;-67
2023/03/21 12:30:12;;;;;;;6.35;4.38;;;11.10;99.90;;;;;;4994794;28;20169;-67
2023/03/21 12:33:03;;;;;;;12.93;5.68;;;11.10;99.90;;;;;;4995602;28;20518;-69
2023/03/21 12:35:47;;;;;;;7.82;4.93;;;11.30;99.90;;;;;;4995297;28;20183;-69
2023/03/21 12:38:24;;;;;;;8.40;5.15;;;11.30;99.90;;;;;;4995205;28;20283;-69
2023/03/21 12:40:52;;;;;;;7.03;4.60;;;11.40;99.90;;;;;;4993900;28;20200;-69
2023/03/21 12:43:45;;;;;;;7.43;5.90;;;11.40;99.90;;;;;;4995188;28;20654;-69
2023/03/21 12:46:18;;;;;;;9.75;4.70;;;11.40;99.90;;;;;;4995175;28;20691;-69
2023/03/21 12:49:00;;;;;;;7.88;4.80;;;11.40;99.90;;;;;;4995667;28;20223;-69
2023/03/21 12:51:31;;;;;;;6.55;4.40;;;11.40;99.90;;;;;;4995415;28;20171;-69
2023/03/21 12:54:11;;;;;;;7.72;4.50;;;11.40;99.90;;;;;;4994120;28;20200;-66
2023/03/21 12:57:02;;;;;;;9.88;5.22;;;11.40;99.90;;;;;;4994433;28;20623;-64
2023/03/21 12:59:36;;;;;;;6.15;4.30;;;11.40;99.90;;;;;;4994943;28;20191;-64
2023/03/21 13:02:28;;;;;;;8.27;4.78;;;11.40;99.90;;;;;;4993290;28;20712;-64
2023/03/21 13:05:04;;;;;;;6.38;4.68;;;11.40;99.90;;;;;;4995064;28;20521;-64
2023/03/21 13:07:38;;;;;;;10.60;4.40;;;11.40;99.90;;;;;;4993714;28;20200;-63